createdAt,value
2023-05-10T00:00:57.441Z,0.00
2023-05-10T00:01:57.438Z,0.00
2023-05-10T00:02:57.525Z,0.00
2023-05-10T00:03:57.384Z,0.00
2023-05-10T00:04:57.357Z,0.00
2023-05-10T00:05:57.279Z,0.00
2023-05-10T00:06:57.253Z,0.00
2023-05-10T00:07:57.213Z,0.00
2023-05-10T00:08:57.219Z,0.00
2023-05-10T00:09:57.152Z,0.00
2023-05-10T00:10:57.179Z,0.00
2023-05-10T00:11:57.077Z,0.00
2023-05-10T00:12:57.080Z,0.00
2023-05-10T00:13:57.038Z,0.00
2023-05-10T00:14:56.978Z,0.00
2023-05-10T00:15:56.950Z,0.00
2023-05-10T00:16:56.990Z,0.00
2023-05-10T00:17:56.884Z,0.00
2023-05-10T00:18:56.848Z,0.00
2023-05-10T00:19:56.831Z,0.00
2023-05-10T00:20:56.775Z,0.00
2023-05-10T00:21:56.756Z,0.00
2023-05-10T00:22:56.870Z,0.00
2023-05-10T00:23:56.693Z,0.00
2023-05-10T00:24:56.648Z,0.00
2023-05-10T00:25:56.641Z,0.00
2023-05-10T00:26:56.592Z,0.00
2023-05-10T00:27:56.564Z,0.00
2023-05-10T00:28:56.594Z,0.00
2023-05-10T00:29:56.525Z,0.00
2023-05-10T00:30:56.454Z,0.00
2023-05-10T00:31:56.443Z,0.00
2023-05-10T00:32:56.937Z,0.00
2023-05-10T00:33:56.355Z,0.00
2023-05-10T00:34:56.381Z,0.00
2023-05-10T00:35:56.290Z,0.00
2023-05-10T00:36:56.260Z,0.00
2023-05-10T00:37:56.217Z,0.00
2023-05-10T00:38:56.186Z,0.00
2023-05-10T00:39:56.171Z,0.00
2023-05-10T00:40:56.187Z,0.00
2023-05-10T00:41:56.088Z,0.00
2023-05-10T00:42:56.055Z,0.00
2023-05-10T00:43:56.030Z,0.00
2023-05-10T00:44:56.002Z,0.00
2023-05-10T00:45:55.997Z,0.00
2023-05-10T00:46:56.000Z,0.00
2023-05-10T00:47:55.944Z,0.00
2023-05-10T00:48:55.854Z,0.00
2023-05-10T00:49:55.835Z,0.00
2023-05-10T00:50:55.785Z,0.00
2023-05-10T00:51:55.762Z,0.00
2023-05-10T00:52:55.792Z,0.00
2023-05-10T00:53:55.695Z,0.00
2023-05-10T00:54:55.674Z,0.00
2023-05-10T00:55:55.645Z,0.00
2023-05-10T00:56:55.594Z,0.00
2023-05-10T00:57:55.563Z,0.00
2023-05-10T00:58:55.590Z,0.00
2023-05-10T00:59:55.496Z,0.00
2023-05-10T01:00:55.460Z,0.00
2023-05-10T01:01:55.431Z,0.00
2023-05-10T01:02:55.492Z,0.00
2023-05-10T01:03:55.421Z,0.00
2023-05-10T01:04:55.378Z,0.00
2023-05-10T01:05:55.305Z,0.00
2023-05-10T01:06:55.268Z,0.00
2023-05-10T01:07:55.232Z,0.00
2023-05-10T01:08:55.200Z,0.00
2023-05-10T01:09:55.221Z,0.00
2023-05-10T01:10:55.127Z,0.00
2023-05-10T01:11:55.138Z,0.00
2023-05-10T01:12:55.127Z,0.00
2023-05-10T01:13:55.096Z,0.00
2023-05-10T01:14:55.006Z,0.00
2023-05-10T01:15:55.013Z,0.00
2023-05-10T01:16:54.937Z,0.00
2023-05-10T01:17:54.956Z,0.00
2023-05-10T01:18:54.951Z,0.00
2023-05-10T01:19:54.834Z,0.00
2023-05-10T01:20:54.812Z,0.00
2023-05-10T01:21:54.767Z,0.00
2023-05-10T01:22:54.743Z,0.00
2023-05-10T01:23:54.701Z,0.00
2023-05-10T01:24:54.772Z,0.00
2023-05-10T01:25:54.637Z,0.00
2023-05-10T01:26:54.610Z,0.00
2023-05-10T01:27:54.570Z,0.00
2023-05-10T01:28:54.532Z,0.00
2023-05-10T01:30:21.745Z,0.00
2023-05-10T01:30:54.529Z,0.00
2023-05-10T01:31:54.439Z,0.00
2023-05-10T01:32:54.420Z,0.00
2023-05-10T01:33:54.397Z,0.00
2023-05-10T01:34:54.436Z,0.00
2023-05-10T01:35:54.336Z,0.00
2023-05-10T01:36:54.273Z,0.00
2023-05-10T01:37:54.240Z,0.00
2023-05-10T01:38:54.218Z,0.00
2023-05-10T01:39:54.193Z,0.00
2023-05-10T01:40:54.192Z,0.00
2023-05-10T01:41:54.101Z,0.00
2023-05-10T01:42:54.070Z,0.00
2023-05-10T01:43:54.043Z,0.00
2023-05-10T01:44:53.998Z,0.00
2023-05-10T01:45:54.030Z,0.00
2023-05-10T01:46:53.994Z,0.00
2023-05-10T01:47:53.978Z,0.00
2023-05-10T01:48:53.867Z,0.00
2023-05-10T01:49:53.838Z,0.00
2023-05-10T01:50:53.801Z,0.00
2023-05-10T01:51:54.097Z,0.00
2023-05-10T01:52:53.740Z,0.00
2023-05-10T01:53:53.702Z,0.00
2023-05-10T01:54:53.667Z,0.00
2023-05-10T01:55:53.633Z,0.00
2023-05-10T01:56:53.655Z,0.00
2023-05-10T01:57:53.566Z,0.00
2023-05-10T01:58:53.529Z,0.00
2023-05-10T01:59:58.922Z,0.00
2023-05-10T02:00:53.534Z,0.00
2023-05-10T02:01:53.506Z,0.00
2023-05-10T02:02:53.470Z,0.00
2023-05-10T02:03:53.392Z,0.00
2023-05-10T02:04:53.327Z,0.00
2023-05-10T02:05:53.300Z,0.00
2023-05-10T02:06:53.287Z,0.00
2023-05-10T02:07:53.279Z,0.00
2023-05-10T02:08:53.197Z,0.00
2023-05-10T02:09:53.160Z,0.00
2023-05-10T02:10:53.125Z,0.00
2023-05-10T02:11:53.106Z,0.00
2023-05-10T02:12:53.097Z,0.00
2023-05-10T02:13:53.095Z,0.00
2023-05-10T02:14:52.993Z,0.00
2023-05-10T02:15:52.960Z,0.00
2023-05-10T02:16:52.964Z,0.00
2023-05-10T02:17:52.910Z,0.00
2023-05-10T02:18:52.922Z,0.00
2023-05-10T02:19:52.828Z,0.00
2023-05-10T02:20:52.799Z,0.00
2023-05-10T02:21:52.779Z,0.00
2023-05-10T02:22:52.731Z,0.00
2023-05-10T02:23:52.694Z,0.00
2023-05-10T02:24:52.741Z,0.00
2023-05-10T02:25:52.669Z,0.00
2023-05-10T02:26:52.650Z,0.00
2023-05-10T02:27:52.562Z,0.00
2023-05-10T02:28:52.542Z,0.00
2023-05-10T02:29:52.503Z,0.00
2023-05-10T02:30:52.548Z,0.00
2023-05-10T02:31:52.488Z,0.00
2023-05-10T02:32:52.435Z,0.00
2023-05-10T02:33:52.365Z,0.00
2023-05-10T02:34:52.330Z,0.00
2023-05-10T02:35:52.309Z,0.00
2023-05-10T02:36:52.313Z,0.00
2023-05-10T02:37:52.316Z,0.00
2023-05-10T02:38:52.215Z,0.00
2023-05-10T02:39:52.171Z,0.00
2023-05-10T02:40:52.129Z,0.00
2023-05-10T02:41:52.096Z,0.00
2023-05-10T02:42:52.116Z,0.00
2023-05-10T02:43:52.021Z,0.00
2023-05-10T02:44:52.004Z,0.00
2023-05-10T02:45:51.993Z,0.00
2023-05-10T02:46:52.030Z,0.00
2023-05-10T02:47:51.949Z,0.00
2023-05-10T02:48:51.860Z,0.00
2023-05-10T02:49:51.824Z,0.00
2023-05-10T02:50:51.790Z,0.00
2023-05-10T02:51:51.756Z,0.00
2023-05-10T02:52:51.787Z,0.00
2023-05-10T02:53:51.689Z,0.00
2023-05-10T02:54:51.688Z,0.00
2023-05-10T02:55:51.621Z,0.00
2023-05-10T02:56:51.588Z,0.00
2023-05-10T02:57:51.560Z,0.00
2023-05-10T02:58:51.589Z,0.00
2023-05-10T02:59:51.490Z,0.00
2023-05-10T03:00:51.457Z,0.00
2023-05-10T03:01:51.452Z,0.00
2023-05-10T03:02:51.439Z,0.00
2023-05-10T03:03:51.351Z,5.63
2023-05-10T03:04:51.482Z,5.63
2023-05-10T03:05:51.289Z,5.63
2023-05-10T03:06:51.413Z,5.63
2023-05-10T03:07:51.222Z,5.63
2023-05-10T03:08:51.188Z,5.63
2023-05-10T03:09:51.204Z,5.63
2023-05-10T03:10:51.118Z,5.63
2023-05-10T03:11:51.111Z,11.25
2023-05-10T03:12:51.100Z,11.25
2023-05-10T03:13:51.035Z,11.25
2023-05-10T03:14:51.032Z,11.25
2023-05-10T03:15:51.479Z,11.25
2023-05-10T03:16:50.913Z,11.25
2023-05-10T03:17:50.914Z,16.88
2023-05-10T03:18:50.853Z,16.88
2023-05-10T03:19:50.874Z,16.88
2023-05-10T03:20:50.791Z,16.88
2023-05-10T03:21:50.763Z,16.88
2023-05-10T03:22:50.728Z,22.50
2023-05-10T03:23:50.697Z,22.50
2023-05-10T03:24:50.703Z,22.50
2023-05-10T03:25:50.608Z,28.13
2023-05-10T03:26:50.578Z,28.13
2023-05-10T03:27:50.543Z,28.13
2023-05-10T03:28:50.514Z,33.75
2023-05-10T03:29:50.478Z,33.75
2023-05-10T03:30:50.497Z,39.38
2023-05-10T03:31:54.063Z,39.38
2023-05-10T03:32:50.416Z,39.38
2023-05-10T03:33:50.338Z,45.00
2023-05-10T03:34:50.310Z,45.00
2023-05-10T03:35:50.266Z,50.63
2023-05-10T03:36:50.302Z,50.63
2023-05-10T03:37:50.208Z,50.63
2023-05-10T03:38:50.169Z,56.25
2023-05-10T03:39:50.147Z,56.25
2023-05-10T03:40:50.111Z,61.88
2023-05-10T03:41:50.076Z,61.88
2023-05-10T03:42:50.621Z,67.50
2023-05-10T03:43:50.006Z,67.50
2023-05-10T03:44:49.967Z,73.13
2023-05-10T03:45:49.938Z,73.13
2023-05-10T03:46:49.928Z,78.75
2023-05-10T03:47:49.954Z,90.00
2023-05-10T03:48:49.852Z,95.63
2023-05-10T03:49:49.803Z,95.63
2023-05-10T03:50:49.770Z,106.88
2023-05-10T03:51:55.507Z,146.25
2023-05-10T03:52:49.754Z,191.25
2023-05-10T03:53:49.663Z,208.13
2023-05-10T03:54:52.596Z,230.63
2023-05-10T03:55:49.594Z,219.38
2023-05-10T03:56:49.566Z,180.00
2023-05-10T03:57:49.612Z,163.13
2023-05-10T03:58:49.530Z,168.75
2023-05-10T03:59:49.471Z,168.75
2023-05-10T04:00:50.078Z,151.88
2023-05-10T04:01:49.448Z,146.25
2023-05-10T04:02:49.542Z,163.13
2023-05-10T04:03:49.454Z,225.00
2023-05-10T04:04:49.355Z,275.63
2023-05-10T04:05:49.301Z,281.25
2023-05-10T04:06:49.237Z,315.00
2023-05-10T04:07:49.198Z,343.13
2023-05-10T04:08:49.173Z,360.00
2023-05-10T04:09:49.199Z,388.13
2023-05-10T04:10:49.121Z,427.50
2023-05-10T04:11:49.075Z,388.13
2023-05-10T04:12:49.064Z,416.25
2023-05-10T04:13:49.969Z,376.88
2023-05-10T04:14:49.033Z,495.00
2023-05-10T04:15:48.943Z,455.63
2023-05-10T04:16:48.929Z,416.25
2023-05-10T04:17:48.901Z,331.88
2023-05-10T04:18:48.851Z,281.25
2023-05-10T04:19:48.816Z,247.50
2023-05-10T04:20:48.840Z,298.13
2023-05-10T04:21:48.747Z,326.25
2023-05-10T04:22:48.743Z,337.50
2023-05-10T04:23:48.700Z,309.38
2023-05-10T04:24:48.673Z,320.63
2023-05-10T04:25:48.637Z,303.75
2023-05-10T04:26:48.636Z,348.75
2023-05-10T04:27:48.568Z,388.13
2023-05-10T04:28:48.528Z,343.13
2023-05-10T04:29:48.506Z,264.38
2023-05-10T04:30:48.499Z,236.25
2023-05-10T04:31:48.441Z,247.50
2023-05-10T04:32:48.556Z,258.75
2023-05-10T04:33:48.411Z,315.00
2023-05-10T04:34:48.336Z,213.75
2023-05-10T04:35:48.309Z,219.38
2023-05-10T04:36:48.274Z,275.63
2023-05-10T04:37:48.251Z,258.75
2023-05-10T04:38:48.261Z,247.50
2023-05-10T04:39:48.186Z,202.50
2023-05-10T04:40:48.162Z,196.88
2023-05-10T04:41:48.137Z,191.25
2023-05-10T04:42:48.090Z,196.88
2023-05-10T04:43:48.062Z,191.25
2023-05-10T04:44:48.083Z,185.63
2023-05-10T04:45:47.990Z,185.63
2023-05-10T04:46:48.176Z,185.63
2023-05-10T04:47:47.951Z,185.63
2023-05-10T04:48:47.939Z,191.25
2023-05-10T04:49:47.863Z,196.88
2023-05-10T04:50:47.906Z,196.88
2023-05-10T04:51:47.812Z,196.88
2023-05-10T04:52:47.774Z,213.75
2023-05-10T04:53:57.655Z,236.25
2023-05-10T04:54:47.704Z,219.38
2023-05-10T04:55:47.684Z,230.63
2023-05-10T04:56:47.702Z,258.75
2023-05-10T04:57:47.608Z,286.88
2023-05-10T04:58:47.580Z,416.25
2023-05-10T04:59:48.944Z,472.50
2023-05-10T05:00:47.514Z,455.63
2023-05-10T05:01:47.603Z,551.25
2023-05-10T05:02:47.542Z,691.88
2023-05-10T05:03:47.539Z,686.25
2023-05-10T05:04:47.385Z,478.13
2023-05-10T05:05:47.351Z,478.13
2023-05-10T05:06:47.329Z,534.38
2023-05-10T05:07:47.358Z,624.38
2023-05-10T05:08:47.257Z,703.13
2023-05-10T05:09:47.252Z,635.63
2023-05-10T05:10:47.196Z,601.88
2023-05-10T05:11:47.173Z,579.38
2023-05-10T05:12:47.133Z,759.38
2023-05-10T05:13:47.981Z,731.25
2023-05-10T05:14:47.091Z,579.38
2023-05-10T05:15:47.136Z,540.00
2023-05-10T05:16:47.021Z,568.13
2023-05-10T05:17:47.014Z,630.00
2023-05-10T05:18:46.955Z,663.75
2023-05-10T05:19:46.976Z,669.38
2023-05-10T05:20:47.474Z,585.00
2023-05-10T05:21:46.853Z,360.00
2023-05-10T05:22:46.853Z,247.50
2023-05-10T05:23:46.799Z,236.25
2023-05-10T05:24:46.763Z,247.50
2023-05-10T05:25:46.804Z,258.75
2023-05-10T05:26:46.707Z,253.13
2023-05-10T05:27:46.680Z,309.38
2023-05-10T05:28:46.645Z,365.63
2023-05-10T05:29:46.610Z,360.00
2023-05-10T05:30:47.585Z,331.88
2023-05-10T05:31:46.568Z,320.63
2023-05-10T05:32:46.568Z,326.25
2023-05-10T05:33:46.502Z,309.38
2023-05-10T05:34:46.464Z,281.25
2023-05-10T05:35:46.425Z,253.13
2023-05-10T05:36:46.712Z,236.25
2023-05-10T05:37:46.363Z,241.88
2023-05-10T05:38:46.336Z,247.50
2023-05-10T05:39:46.305Z,253.13
2023-05-10T05:40:46.357Z,253.13
2023-05-10T05:41:46.235Z,241.88
2023-05-10T05:42:46.263Z,236.25
2023-05-10T05:43:46.184Z,236.25
2023-05-10T05:44:46.166Z,236.25
2023-05-10T05:45:46.135Z,236.25
2023-05-10T05:46:46.098Z,241.88
2023-05-10T05:47:46.141Z,241.88
2023-05-10T05:48:46.099Z,241.88
2023-05-10T05:49:45.992Z,241.88
2023-05-10T05:50:45.966Z,241.88
2023-05-10T05:51:45.930Z,247.50
2023-05-10T05:52:45.911Z,247.50
2023-05-10T05:53:45.939Z,247.50
2023-05-10T05:54:45.882Z,247.50
2023-05-10T05:55:45.816Z,247.50
2023-05-10T05:56:45.778Z,253.13
2023-05-10T05:57:45.740Z,253.13
2023-05-10T05:58:45.729Z,253.13
2023-05-10T05:59:45.748Z,253.13
2023-05-10T06:00:45.730Z,253.13
2023-05-10T06:01:45.637Z,253.13
2023-05-10T06:02:45.664Z,253.13
2023-05-10T06:03:45.656Z,253.13
2023-05-10T06:04:45.535Z,253.13
2023-05-10T06:05:45.512Z,258.75
2023-05-10T06:06:45.522Z,258.75
2023-05-10T06:07:45.436Z,258.75
2023-05-10T06:08:45.394Z,258.75
2023-05-10T06:09:45.394Z,258.75
2023-05-10T06:10:45.351Z,258.75
2023-05-10T06:11:46.113Z,258.75
2023-05-10T06:12:46.037Z,258.75
2023-05-10T06:13:45.247Z,264.38
2023-05-10T06:14:45.277Z,264.38
2023-05-10T06:15:45.184Z,264.38
2023-05-10T06:16:45.215Z,264.38
2023-05-10T06:17:45.140Z,264.38
2023-05-10T06:18:45.096Z,264.38
2023-05-10T06:19:45.061Z,264.38
2023-05-10T06:20:45.072Z,264.38
2023-05-10T06:21:44.990Z,270.00
2023-05-10T06:22:45.022Z,270.00
2023-05-10T06:23:44.936Z,270.00
2023-05-10T06:24:44.895Z,270.00
2023-05-10T06:25:44.865Z,270.00
2023-05-10T06:26:44.885Z,270.00
2023-05-10T06:27:47.132Z,270.00
2023-05-10T06:28:44.772Z,270.00
2023-05-10T06:29:44.733Z,270.00
2023-05-10T06:30:44.704Z,275.63
2023-05-10T06:31:44.752Z,275.63
2023-05-10T06:32:44.766Z,275.63
2023-05-10T06:33:44.612Z,275.63
2023-05-10T06:34:44.599Z,275.63
2023-05-10T06:35:44.571Z,275.63
2023-05-10T06:36:44.624Z,275.63
2023-05-10T06:37:44.559Z,275.63
2023-05-10T06:38:44.518Z,275.63
2023-05-10T06:39:44.433Z,275.63
2023-05-10T06:40:44.386Z,275.63
2023-05-10T06:41:44.358Z,275.63
2023-05-10T06:42:44.327Z,275.63
2023-05-10T06:43:44.316Z,275.63
2023-05-10T06:44:44.321Z,275.63
2023-05-10T06:45:44.237Z,275.63
2023-05-10T06:46:44.322Z,275.63
2023-05-10T06:47:44.251Z,275.63
2023-05-10T06:48:44.150Z,275.63
2023-05-10T06:49:44.118Z,275.63
2023-05-10T06:50:44.145Z,275.63
2023-05-10T06:51:44.065Z,275.63
2023-05-10T06:52:44.243Z,275.63
2023-05-10T06:53:43.981Z,275.63
2023-05-10T06:54:43.968Z,275.63
2023-05-10T06:55:44.139Z,270.00
2023-05-10T06:56:43.889Z,270.00
2023-05-10T06:57:43.880Z,270.00
2023-05-10T06:58:43.866Z,270.00
2023-05-10T06:59:43.801Z,270.00
2023-05-10T07:00:43.850Z,270.00
2023-05-10T07:01:43.864Z,270.00
2023-05-10T07:02:43.744Z,270.00
2023-05-10T07:03:43.677Z,270.00
2023-05-10T07:04:43.648Z,270.00
2023-05-10T07:05:43.649Z,270.00
2023-05-10T07:06:43.594Z,270.00
2023-05-10T07:07:43.623Z,270.00
2023-05-10T07:08:43.530Z,270.00
2023-05-10T07:09:43.505Z,270.00
2023-05-10T07:10:43.460Z,270.00
2023-05-10T07:11:43.424Z,270.00
2023-05-10T07:12:43.474Z,270.00
2023-05-10T07:13:43.451Z,270.00
2023-05-10T07:14:43.474Z,270.00
2023-05-10T07:15:43.312Z,270.00
2023-05-10T07:16:43.408Z,270.00
2023-05-10T07:17:45.518Z,270.00
2023-05-10T07:18:43.278Z,270.00
2023-05-10T07:19:43.256Z,270.00
2023-05-10T07:20:43.165Z,270.00
2023-05-10T07:21:43.133Z,270.00
2023-05-10T07:22:43.107Z,270.00
2023-05-10T07:23:44.962Z,270.00
2023-05-10T07:24:43.081Z,270.00
2023-05-10T07:25:43.006Z,270.00
2023-05-10T07:26:43.055Z,270.00
2023-05-10T07:27:42.962Z,270.00
2023-05-10T07:28:42.933Z,270.00
2023-05-10T07:29:42.878Z,264.38
2023-05-10T07:30:42.993Z,264.38
2023-05-10T07:31:42.856Z,264.38
2023-05-10T07:32:42.888Z,264.38
2023-05-10T07:33:42.763Z,264.38
2023-05-10T07:34:42.748Z,264.38
2023-05-10T07:35:42.750Z,264.38
2023-05-10T07:36:42.788Z,264.38
2023-05-10T07:37:42.638Z,264.38
2023-05-10T07:38:42.604Z,264.38
2023-05-10T07:39:42.581Z,264.38
2023-05-10T07:40:42.544Z,264.38
2023-05-10T07:41:42.512Z,264.38
2023-05-10T07:42:42.578Z,264.38
2023-05-10T07:43:42.461Z,264.38
2023-05-10T07:44:42.421Z,264.38
2023-05-10T07:45:42.452Z,264.38
2023-05-10T07:46:42.399Z,264.38
2023-05-10T07:47:42.378Z,264.38
2023-05-10T07:48:42.362Z,264.38
2023-05-10T07:49:42.269Z,264.38
2023-05-10T07:50:42.257Z,264.38
2023-05-10T07:51:42.208Z,264.38
2023-05-10T07:52:42.181Z,258.75
2023-05-10T07:53:42.150Z,264.38
2023-05-10T07:54:42.179Z,258.75
2023-05-10T07:55:42.089Z,258.75
2023-05-10T07:56:42.049Z,258.75
2023-05-10T07:57:42.032Z,258.75
2023-05-10T07:58:45.019Z,258.75
2023-05-10T07:59:41.965Z,258.75
2023-05-10T08:00:42.004Z,258.75
2023-05-10T08:01:41.907Z,258.75
2023-05-10T08:02:41.947Z,258.75
2023-05-10T08:03:41.913Z,258.75
2023-05-10T08:04:41.965Z,258.75
2023-05-10T08:05:41.845Z,258.75
2023-05-10T08:06:41.869Z,258.75
2023-05-10T08:07:41.742Z,258.75
2023-05-10T08:08:41.694Z,258.75
2023-05-10T08:09:41.678Z,258.75
2023-05-10T08:10:41.634Z,258.75
2023-05-10T08:11:41.663Z,258.75
2023-05-10T08:12:41.589Z,258.75
2023-05-10T08:13:41.542Z,258.75
2023-05-10T08:14:41.540Z,258.75
2023-05-10T08:15:41.520Z,258.75
2023-05-10T08:16:41.450Z,253.13
2023-05-10T08:17:41.550Z,258.75
2023-05-10T08:18:41.424Z,253.13
2023-05-10T08:19:41.371Z,258.75
2023-05-10T08:20:41.339Z,258.75
2023-05-10T08:21:41.311Z,258.75
2023-05-10T08:22:41.346Z,258.75
2023-05-10T08:23:41.244Z,258.75
2023-05-10T08:24:41.230Z,258.75
2023-05-10T08:25:41.188Z,258.75
2023-05-10T08:26:42.022Z,258.75
2023-05-10T08:27:41.131Z,258.75
2023-05-10T08:28:41.179Z,258.75
2023-05-10T08:29:49.724Z,258.75
2023-05-10T08:30:41.046Z,258.75
2023-05-10T08:31:41.061Z,258.75
2023-05-10T08:32:41.086Z,258.75
2023-05-10T08:33:42.321Z,258.75
2023-05-10T08:34:40.993Z,258.75
2023-05-10T08:35:40.908Z,258.75
2023-05-10T08:36:40.871Z,258.75
2023-05-10T08:37:40.846Z,258.75
2023-05-10T08:38:40.816Z,258.75
2023-05-10T08:39:40.776Z,258.75
2023-05-10T08:40:40.812Z,258.75
2023-05-10T08:41:40.825Z,258.75
2023-05-10T08:42:40.690Z,253.13
2023-05-10T08:43:40.669Z,253.13
2023-05-10T08:44:40.663Z,253.13
2023-05-10T08:45:40.673Z,253.13
2023-05-10T08:46:40.711Z,253.13
2023-05-10T08:47:40.634Z,253.13
2023-05-10T08:48:40.514Z,253.13
2023-05-10T08:49:40.509Z,253.13
2023-05-10T08:50:40.457Z,253.13
2023-05-10T08:51:41.782Z,253.13
2023-05-10T08:52:40.440Z,253.13
2023-05-10T08:53:40.368Z,253.13
2023-05-10T08:54:40.348Z,253.13
2023-05-10T08:55:40.317Z,253.13
2023-05-10T08:56:40.272Z,253.13
2023-05-10T08:57:40.332Z,253.13
2023-05-10T08:58:40.214Z,253.13
2023-05-10T08:59:40.184Z,253.13
2023-05-10T09:00:40.193Z,253.13
2023-05-10T09:01:40.125Z,253.13
2023-05-10T09:02:40.130Z,247.50
2023-05-10T09:03:40.145Z,247.50
2023-05-10T09:04:40.133Z,247.50
2023-05-10T09:05:40.185Z,247.50
2023-05-10T09:06:39.992Z,247.50
2023-05-10T09:07:39.967Z,247.50
2023-05-10T09:08:39.925Z,247.50
2023-05-10T09:09:39.957Z,247.50
2023-05-10T09:10:39.871Z,247.50
2023-05-10T09:11:39.856Z,247.50
2023-05-10T09:12:39.817Z,247.50
2023-05-10T09:13:39.778Z,247.50
2023-05-10T09:14:39.750Z,247.50
2023-05-10T09:15:39.840Z,247.50
2023-05-10T09:16:39.824Z,247.50
2023-05-10T09:17:39.694Z,247.50
2023-05-10T09:18:39.720Z,247.50
2023-05-10T09:19:39.627Z,253.13
2023-05-10T09:20:39.597Z,241.88
2023-05-10T09:21:39.624Z,247.50
2023-05-10T09:22:39.520Z,241.88
2023-05-10T09:23:39.501Z,241.88
2023-05-10T09:24:39.461Z,241.88
2023-05-10T09:25:39.443Z,241.88
2023-05-10T09:26:39.404Z,241.88
2023-05-10T09:27:39.447Z,241.88
2023-05-10T09:28:39.347Z,241.88
2023-05-10T09:29:39.320Z,241.88
2023-05-10T09:30:39.334Z,241.88
2023-05-10T09:31:39.274Z,241.88
2023-05-10T09:32:39.252Z,241.88
2023-05-10T09:33:39.263Z,241.88
2023-05-10T09:34:39.173Z,241.88
2023-05-10T09:35:39.216Z,241.88
2023-05-10T09:36:39.116Z,241.88
2023-05-10T09:37:39.094Z,241.88
2023-05-10T09:38:39.056Z,241.88
2023-05-10T09:39:39.098Z,241.88
2023-05-10T09:40:39.006Z,241.88
2023-05-10T09:41:39.011Z,241.88
2023-05-10T09:42:38.954Z,241.88
2023-05-10T09:43:38.918Z,241.88
2023-05-10T09:44:38.890Z,241.88
2023-05-10T09:45:39.417Z,241.88
2023-05-10T09:46:39.020Z,241.88
2023-05-10T09:47:38.834Z,241.88
2023-05-10T09:48:38.772Z,241.88
2023-05-10T09:49:38.752Z,241.88
2023-05-10T09:50:38.722Z,241.88
2023-05-10T09:51:38.783Z,241.88
2023-05-10T09:52:38.673Z,241.88
2023-05-10T09:53:38.638Z,241.88
2023-05-10T09:54:38.602Z,241.88
2023-05-10T09:55:38.588Z,241.88
2023-05-10T09:56:38.650Z,241.88
2023-05-10T09:57:38.631Z,241.88
2023-05-10T09:58:38.490Z,241.88
2023-05-10T09:59:38.471Z,241.88
2023-05-10T10:00:38.444Z,241.88
2023-05-10T10:01:38.611Z,247.50
2023-05-10T10:02:38.421Z,241.88
2023-05-10T10:03:38.425Z,241.88
2023-05-10T10:04:38.388Z,241.88
2023-05-10T10:05:38.308Z,241.88
2023-05-10T10:06:38.365Z,241.88
2023-05-10T10:07:38.261Z,247.50
2023-05-10T10:08:38.223Z,247.50
2023-05-10T10:09:38.240Z,247.50
2023-05-10T10:10:38.165Z,247.50
2023-05-10T10:11:38.200Z,247.50
2023-05-10T10:12:38.129Z,247.50
2023-05-10T10:13:38.080Z,247.50
2023-05-10T10:14:38.071Z,247.50
2023-05-10T10:15:38.206Z,247.50
2023-05-10T10:16:45.829Z,241.88
2023-05-10T10:17:38.060Z,241.88
2023-05-10T10:18:37.961Z,241.88
2023-05-10T10:19:38.312Z,241.88
2023-05-10T10:20:37.891Z,241.88
2023-05-10T10:21:37.932Z,241.88
2023-05-10T10:22:37.820Z,247.50
2023-05-10T10:23:37.796Z,247.50
2023-05-10T10:24:37.806Z,247.50
2023-05-10T10:25:37.747Z,247.50
2023-05-10T10:26:37.759Z,247.50
2023-05-10T10:27:37.795Z,247.50
2023-05-10T10:28:37.669Z,247.50
2023-05-10T10:29:37.640Z,247.50
2023-05-10T10:30:37.617Z,247.50
2023-05-10T10:31:37.723Z,247.50
2023-05-10T10:32:37.592Z,247.50
2023-05-10T10:33:37.599Z,247.50
2023-05-10T10:34:37.487Z,247.50
2023-05-10T10:35:37.487Z,247.50
2023-05-10T10:36:37.456Z,247.50
2023-05-10T10:37:37.425Z,247.50
2023-05-10T10:38:37.410Z,247.50
2023-05-10T10:39:38.187Z,247.50
2023-05-10T10:40:37.333Z,247.50
2023-05-10T10:41:37.344Z,247.50
2023-05-10T10:42:37.284Z,253.13
2023-05-10T10:43:37.253Z,253.13
2023-05-10T10:44:37.221Z,253.13
2023-05-10T10:45:37.253Z,253.13
2023-05-10T10:46:37.209Z,253.13
2023-05-10T10:47:37.189Z,253.13
2023-05-10T10:48:37.120Z,253.13
2023-05-10T10:49:37.077Z,253.13
2023-05-10T10:50:37.058Z,253.13
2023-05-10T10:51:37.082Z,253.13
2023-05-10T10:52:36.999Z,258.75
2023-05-10T10:53:36.987Z,258.75
2023-05-10T10:54:36.978Z,253.13
2023-05-10T10:55:36.917Z,253.13
2023-05-10T10:56:37.207Z,253.13
2023-05-10T10:57:36.866Z,253.13
2023-05-10T10:58:36.843Z,253.13
2023-05-10T10:59:36.813Z,253.13
2023-05-10T11:00:36.858Z,253.13
2023-05-10T11:01:36.847Z,253.13
2023-05-10T11:02:36.823Z,253.13
2023-05-10T11:03:36.706Z,253.13
2023-05-10T11:04:36.737Z,253.13
2023-05-10T11:05:36.654Z,253.13
2023-05-10T11:06:36.769Z,253.13
2023-05-10T11:07:36.667Z,253.13
2023-05-10T11:08:38.251Z,253.13
2023-05-10T11:09:36.543Z,253.13
2023-05-10T11:10:36.526Z,253.13
2023-05-10T11:11:36.514Z,253.13
2023-05-10T11:12:36.468Z,253.13
2023-05-10T11:13:36.504Z,253.13
2023-05-10T11:14:36.411Z,253.13
2023-05-10T11:15:36.397Z,253.13
2023-05-10T11:16:36.372Z,253.13
2023-05-10T11:17:36.363Z,253.13
2023-05-10T11:18:36.327Z,258.75
2023-05-10T11:19:36.321Z,253.13
2023-05-10T11:20:36.246Z,253.13
2023-05-10T11:21:36.212Z,247.50
2023-05-10T11:22:36.197Z,253.13
2023-05-10T11:23:36.174Z,253.13
2023-05-10T11:24:36.211Z,247.50
2023-05-10T11:25:36.131Z,253.13
2023-05-10T11:26:36.096Z,253.13
2023-05-10T11:27:36.099Z,247.50
2023-05-10T11:28:36.046Z,247.50
2023-05-10T11:29:36.701Z,247.50
2023-05-10T11:30:36.077Z,247.50
2023-05-10T11:31:35.981Z,247.50
2023-05-10T11:32:35.967Z,247.50
2023-05-10T11:33:35.904Z,241.88
2023-05-10T11:34:35.876Z,247.50
2023-05-10T11:35:35.843Z,247.50
2023-05-10T11:36:35.882Z,247.50
2023-05-10T11:37:35.789Z,247.50
2023-05-10T11:38:35.785Z,247.50
2023-05-10T11:39:35.758Z,247.50
2023-05-10T11:40:35.726Z,247.50
2023-05-10T11:41:35.760Z,247.50
2023-05-10T11:42:35.669Z,247.50
2023-05-10T11:43:35.639Z,247.50
2023-05-10T11:44:35.622Z,247.50
2023-05-10T11:45:35.599Z,247.50
2023-05-10T11:46:35.573Z,247.50
2023-05-10T11:47:35.623Z,247.50
2023-05-10T11:48:36.096Z,247.50
2023-05-10T11:49:35.500Z,247.50
2023-05-10T11:50:35.455Z,247.50
2023-05-10T11:51:35.483Z,247.50
2023-05-10T11:52:35.395Z,247.50
2023-05-10T11:53:35.376Z,247.50
2023-05-10T11:54:35.353Z,247.50
2023-05-10T11:55:35.334Z,247.50
2023-05-10T11:56:35.347Z,247.50
2023-05-10T11:57:35.267Z,247.50
2023-05-10T11:58:35.259Z,247.50
2023-05-10T11:59:35.233Z,247.50
2023-05-10T12:00:35.199Z,247.50
2023-05-10T12:01:35.173Z,247.50
2023-05-10T12:02:35.235Z,247.50
2023-05-10T12:03:35.296Z,247.50
2023-05-10T12:04:35.120Z,247.50
2023-05-10T12:05:35.060Z,247.50
2023-05-10T12:06:35.034Z,247.50
2023-05-10T12:07:35.007Z,253.13
2023-05-10T12:08:35.038Z,253.13
2023-05-10T12:09:43.111Z,253.13
2023-05-10T12:10:34.939Z,253.13
2023-05-10T12:11:34.921Z,253.13
2023-05-10T12:12:34.882Z,253.13
2023-05-10T12:13:34.895Z,247.50
2023-05-10T12:14:34.828Z,253.13
2023-05-10T12:15:34.796Z,253.13
2023-05-10T12:16:34.864Z,253.13
2023-05-10T12:17:34.783Z,247.50
2023-05-10T12:18:34.790Z,247.50
2023-05-10T12:19:34.761Z,247.50
2023-05-10T12:20:34.669Z,247.50
2023-05-10T12:21:34.638Z,247.50
2023-05-10T12:22:34.617Z,247.50
2023-05-10T12:23:34.599Z,258.75
2023-05-10T12:24:34.583Z,253.13
2023-05-10T12:25:34.596Z,247.50
2023-05-10T12:26:34.518Z,247.50
2023-05-10T12:27:34.512Z,258.75
2023-05-10T12:28:34.466Z,230.63
2023-05-10T12:29:34.436Z,230.63
2023-05-10T12:30:34.414Z,258.75
2023-05-10T12:31:34.495Z,230.63
2023-05-10T12:32:34.382Z,253.13
2023-05-10T12:33:34.332Z,258.75
2023-05-10T12:34:34.309Z,258.75
2023-05-10T12:35:34.293Z,286.88
2023-05-10T12:36:34.258Z,298.13
2023-05-10T12:37:34.287Z,303.75
2023-05-10T12:38:34.225Z,315.00
2023-05-10T12:39:34.175Z,298.13
2023-05-10T12:40:34.200Z,292.50
2023-05-10T12:41:34.133Z,303.75